Time;durP1;ratioP1;P1;durP2;ratioP2;P2;SDS_P1;SDS_P2;PMS_P1;PMS_P2;Temp;Humidity;BMP_temperature;BMP_pressure;BME280_temperature;BME280_humidity;BME280_pressure;Samples;Min_cycle;Max_cycle;Signal;HPM_P1;HPM_P2
2024/01/25 00:01:54;;;;;;;55.03;16.13;;;;;;;6.18;58.21;99391.84;5055941;28;20242;-85
2024/01/25 00:04:19;;;;;;;39.37;13.50;;;;;;;6.32;57.92;99391.41;5066743;28;20196;-85
2024/01/25 00:06:46;;;;;;;53.83;20.80;;;;;;;6.27;57.93;99376.84;5035804;28;20177;-85
2024/01/25 00:09:13;;;;;;;44.23;16.10;;;;;;;6.10;58.19;99382.59;5053543;28;20176;-84
2024/01/25 00:11:38;;;;;;;37.57;13.40;;;;;;;5.87;58.63;99370.25;5073751;28;20198;-84
2024/01/25 00:14:04;;;;;;;40.13;14.47;;;;;;;5.95;59.34;99357.88;5072829;28;20622;-84
2024/01/25 00:16:31;;;;;;;17.90;8.20;;;;;;;6.11;59.03;99366.91;5073127;28;20264;-85
2024/01/25 00:18:56;;;;;;;20.60;8.73;;;;;;;6.19;58.46;99364.91;5072967;28;20289;-85
2024/01/25 00:21:22;;;;;;;20.47;9.60;;;;;;;6.16;58.13;99361.56;5055408;28;20284;-85
2024/01/25 00:23:47;;;;;;;17.87;6.10;;;;;;;6.05;57.92;99364.47;5072999;28;20612;-84
2024/01/25 00:26:14;;;;;;;12.67;4.63;;;;;;;6.02;58.56;99353.34;5073573;28;20189;-84
2024/01/25 00:28:39;;;;;;;10.57;5.10;;;;;;;5.83;58.66;99332.19;5072813;28;20172;-84
2024/01/25 00:31:06;;;;;;;12.97;6.07;;;;;;;5.77;59.70;99313.31;5073261;28;20186;-84
2024/01/25 00:33:31;;;;;;;14.00;5.77;;;;;;;5.70;59.93;99297.06;5055192;28;20283;-84
2024/01/25 00:35:58;;;;;;;8.17;3.67;;;;;;;5.75;59.77;99302.13;5055335;28;20177;-84
2024/01/25 00:38:26;;;;;;;8.03;4.10;;;;;;;5.86;59.52;99297.47;5072746;28;20201;-84
2024/01/25 00:40:52;;;;;;;9.57;4.00;;;;;;;5.89;59.98;99293.03;5052730;28;20173;-84
2024/01/25 00:43:18;;;;;;;13.63;4.50;;;;;;;5.95;59.63;99295.44;5053114;28;20509;-84
2024/01/25 00:45:45;;;;;;;17.17;6.97;;;;;;;6.06;59.23;99292.50;5066677;28;20184;-84
2024/01/25 00:48:11;;;;;;;25.10;8.80;;;;;;;6.15;59.12;99294.81;5072828;28;20173;-85
2024/01/25 00:50:37;;;;;;;18.67;7.10;;;;;;;6.13;58.55;99288.81;5072387;28;20200;-84
2024/01/25 00:53:03;;;;;;;21.53;7.37;;;;;;;6.12;58.78;99294.91;5054697;28;20181;-84
2024/01/25 00:55:29;;;;;;;25.83;7.63;;;;;;;5.97;58.71;99304.06;5073023;28;20184;-84
2024/01/25 00:57:56;;;;;;;16.60;6.80;;;;;;;6.10;57.75;99304.50;5049094;28;20229;-84
2024/01/25 01:00:23;;;;;;;15.80;6.97;;;;;;;6.06;57.82;99302.91;5035087;28;20547;-84
2024/01/25 01:02:49;;;;;;;22.73;7.50;;;;;;;5.88;58.88;99293.94;5052977;28;20165;-84
2024/01/25 01:05:16;;;;;;;22.77;8.90;;;;;;;5.87;58.66;99286.19;5067077;28;20196;-84
2024/01/25 01:07:42;;;;;;;13.70;6.60;;;;;;;5.84;59.00;99286.25;5054946;28;20609;-84
2024/01/25 01:10:08;;;;;;;26.23;8.10;;;;;;;5.80;59.34;99279.41;5072457;28;20209;-84
2024/01/25 01:12:34;;;;;;;14.27;5.27;;;;;;;5.99;58.70;99283.19;5055203;28;20527;-84
2024/01/25 01:15:01;;;;;;;12.73;4.43;;;;;;;5.98;58.08;99274.53;5072419;28;20249;-84
2024/01/25 01:17:28;;;;;;;5.23;3.20;;;;;;;5.96;58.24;99270.28;5057397;28;20501;-84
2024/01/25 01:19:53;;;;;;;9.73;3.07;;;;;;;5.70;58.65;99257.19;5036260;28;20167;-84
2024/01/25 01:22:19;;;;;;;6.30;2.67;;;;;;;5.77;58.54;99262.16;5036344;28;20219;-84
2024/01/25 01:24:45;;;;;;;9.63;4.33;;;;;;;5.70;59.13;99252.84;5057185;28;20528;-84
2024/01/25 01:27:12;;;;;;;26.90;11.63;;;;;;;5.70;59.04;99252.84;5066056;28;20197;-84
2024/01/25 01:29:39;;;;;;;27.13;10.97;;;;;;;5.59;58.75;99229.78;5061312;28;20176;-84
2024/01/25 01:32:06;;;;;;;22.63;9.80;;;;;;;5.66;58.89;99232.19;5069847;28;20657;-84
2024/01/25 01:34:32;;;;;;;24.43;9.13;;;;;;;5.51;59.50;99242.16;5067639;28;20271;-84
2024/01/25 01:36:59;;;;;;;22.70;7.67;;;;;;;5.49;59.38;99245.72;5062898;28;20195;-84
2024/01/25 01:39:25;;;;;;;19.77;9.27;;;;;;;5.50;59.89;99252.63;5042532;28;20203;-84
2024/01/25 01:41:50;;;;;;;17.93;8.27;;;;;;;5.43;60.04;99223.34;5058146;28;20200;-84
2024/01/25 01:44:16;;;;;;;162.93;71.07;;;;;;;5.42;59.76;99242.44;5057753;28;20267;-84
2024/01/25 01:46:43;;;;;;;43.97;20.37;;;;;;;5.40;59.77;99248.56;5076104;28;20172;-84
2024/01/25 01:49:11;;;;;;;23.87;11.50;;;;;;;5.41;60.15;99240.75;5075587;28;20185;-84
2024/01/25 01:51:39;;;;;;;23.17;11.37;;;;;;;5.43;59.81;99228.53;5075614;28;20181;-84
2024/01/25 01:54:09;;;;;;;28.10;14.03;;;;;;;5.45;59.61;99231.13;5075677;28;20637;-84
2024/01/25 01:56:36;;;;;;;36.20;15.60;;;;;;;5.42;60.30;99237.22;5075527;28;20543;-84
2024/01/25 01:59:05;;;;;;;18.20;7.87;;;;;;;5.38;59.78;99239.97;5075805;28;20277;-84
2024/01/25 02:01:35;;;;;;;8.47;4.00;;;;;;;5.18;60.54;99237.13;5075640;28;20619;-83
2024/01/25 02:04:02;;;;;;;7.63;3.40;;;;;;;4.98;62.16;99246.34;5075875;28;20575;-83
2024/01/25 02:06:29;;;;;;;11.10;4.50;;;;;;;5.28;61.27;99252.41;5075453;28;20257;-84
2024/01/25 02:08:55;;;;;;;7.63;4.13;;;;;;;5.34;61.05;99239.25;5075222;28;20642;-84
2024/01/25 02:11:21;;;;;;;13.13;4.07;;;;;;;5.41;60.28;99232.94;5057704;28;20181;-84
2024/01/25 02:13:47;;;;;;;17.17;6.20;;;;;;;5.41;59.90;99219.09;5074941;28;20200;-84
2024/01/25 02:16:17;;;;;;;10.33;3.73;;;;;;;5.45;59.37;99208.53;5075333;28;20172;-84
2024/01/25 02:18:44;;;;;;;9.17;3.33;;;;;;;5.37;60.25;99207.94;5075260;28;20194;-84
2024/01/25 02:21:11;;;;;;;8.10;3.43;;;;;;;5.34;59.72;99205.44;5075436;28;20177;-83
2024/01/25 02:23:37;;;;;;;6.27;2.93;;;;;;;5.19;60.63;99216.28;5057339;28;20199;-84
2024/01/25 02:26:04;;;;;;;12.27;5.33;;;;;;;5.29;60.19;99198.69;5057453;28;20202;-84
2024/01/25 02:28:30;;;;;;;12.63;3.90;;;;;;;5.32;60.53;99196.00;5057106;28;20636;-84
2024/01/25 02:30:56;;;;;;;9.47;3.73;;;;;;;5.35;60.24;99196.75;5074959;28;20172;-84
2024/01/25 02:33:22;;;;;;;14.83;4.07;;;;;;;5.38;59.84;99193.19;5057576;28;20183;-84
2024/01/25 02:35:48;;;;;;;19.70;4.63;;;;;;;5.35;59.92;99182.88;5057105;28;20181;-83
2024/01/25 02:38:14;;;;;;;12.73;4.23;;;;;;;5.35;59.72;99173.34;5057151;28;20210;-85
2024/01/25 02:40:41;;;;;;;14.70;5.77;;;;;;;5.39;60.09;99164.56;5074800;28;20272;-84
2024/01/25 02:43:07;;;;;;;12.57;5.73;;;;;;;5.29;60.52;99181.31;5074642;28;20187;-84
2024/01/25 02:45:34;;;;;;;15.60;6.77;;;;;;;5.20;61.09;99171.22;5074606;28;20191;-84
2024/01/25 02:48:01;;;;;;;11.97;6.30;;;;;;;5.38;60.96;99172.41;5057001;28;20560;-84
2024/01/25 02:50:27;;;;;;;14.40;7.60;;;;;;;5.32;60.91;99172.63;5074478;28;20186;-84
2024/01/25 02:52:53;;;;;;;23.07;9.20;;;;;;;5.35;60.79;99170.75;5057748;28;20270;-84
2024/01/25 02:55:20;;;;;;;14.90;7.13;;;;;;;5.41;60.67;99167.13;5056932;28;20191;-84
2024/01/25 02:57:47;;;;;;;12.20;6.63;;;;;;;5.48;60.71;99164.28;5074666;28;20197;-84
2024/01/25 03:00:13;;;;;;;16.73;7.40;;;;;;;5.47;60.73;99151.34;5075230;28;20179;-84
2024/01/25 03:02:38;;;;;;;20.47;8.50;;;;;;;5.53;60.49;99146.78;5074186;28;20185;-85
2024/01/25 03:05:05;;;;;;;20.50;10.33;;;;;;;5.58;60.23;99138.84;5056719;28;20242;-84
2024/01/25 03:07:31;;;;;;;18.70;9.43;;;;;;;5.55;60.48;99129.38;5074047;28;20184;-84
2024/01/25 03:09:56;;;;;;;13.60;5.90;;;;;;;5.55;59.84;99116.38;5056901;28;20544;-84
2024/01/25 03:12:21;;;;;;;15.40;7.53;;;;;;;5.64;59.55;99115.22;5056800;28;20177;-84
2024/01/25 03:14:48;;;;;;;15.07;6.63;;;;;;;5.56;59.99;99105.09;5056532;28;20186;-84
2024/01/25 03:17:15;;;;;;;13.80;6.13;;;;;;;5.58;60.00;99097.25;5074043;28;20313;-84
2024/01/25 03:19:41;;;;;;;17.80;7.47;;;;;;;5.58;60.01;99100.69;5056657;28;20294;-84
2024/01/25 03:22:07;;;;;;;11.00;5.23;;;;;;;5.51;60.47;99111.31;5056198;28;20275;-84
2024/01/25 03:24:33;;;;;;;11.60;5.60;;;;;;;5.39;60.21;99107.41;5074211;28;20173;-84
2024/01/25 03:27:00;;;;;;;16.83;6.13;;;;;;;5.37;60.88;99096.19;5056278;28;20203;-84
2024/01/25 03:29:25;;;;;;;13.83;6.13;;;;;;;5.43;60.36;99095.97;5073596;28;20234;-84
2024/01/25 03:31:52;;;;;;;11.63;5.57;;;;;;;5.44;60.45;99100.28;5074073;28;20200;-84
2024/01/25 03:34:17;;;;;;;8.80;4.63;;;;;;;5.46;60.16;99093.28;5055868;28;20198;-84
2024/01/25 03:36:44;;;;;;;11.80;5.13;;;;;;;5.57;59.90;99100.75;5056128;28;20179;-84
2024/01/25 03:39:11;;;;;;;13.73;4.43;;;;;;;5.54;60.00;99114.69;5073319;28;20197;-84
2024/01/25 03:41:36;;;;;;;11.83;4.67;;;;;;;5.40;59.79;99105.63;5052241;28;20702;-84
2024/01/25 03:44:03;;;;;;;13.23;5.03;;;;;;;5.46;59.82;99118.44;5053090;28;20258;-84
2024/01/25 03:46:30;;;;;;;14.70;6.03;;;;;;;5.30;60.34;99118.06;5054119;28;20166;-84
2024/01/25 03:48:55;;;;;;;15.57;5.30;;;;;;;5.24;60.05;99118.25;5052868;28;20594;-84
2024/01/25 03:51:23;;;;;;;12.13;5.07;;;;;;;5.00;61.62;99115.59;5052374;28;20201;-83
2024/01/25 03:53:49;;;;;;;7.83;4.37;;;;;;;4.82;62.11;99122.19;5052393;28;20176;-84
2024/01/25 03:56:17;;;;;;;10.53;4.63;;;;;;;4.97;61.94;99116.53;5053309;28;20212;-84
2024/01/25 03:58:43;;;;;;;8.23;4.30;;;;;;;5.16;62.03;99122.00;5052733;28;20211;-84
2024/01/25 04:01:09;;;;;;;8.37;4.90;;;;;;;5.25;61.22;99109.56;5053362;28;20172;-84
2024/01/25 04:03:35;;;;;;;16.17;4.93;;;;;;;5.28;60.67;99109.47;5041779;28;20189;-84
2024/01/25 04:06:02;;;;;;;10.53;5.10;;;;;;;5.29;60.68;99111.16;5052263;28;20193;-84
2024/01/25 04:08:27;;;;;;;10.43;5.03;;;;;;;5.25;60.72;99114.78;5052115;28;20521;-84
2024/01/25 04:10:53;;;;;;;11.77;5.30;;;;;;;5.19;60.74;99109.75;5053137;28;20270;-84
2024/01/25 04:13:18;;;;;;;13.03;4.87;;;;;;;5.11;60.90;99110.91;5053151;28;20192;-84
2024/01/25 04:15:45;;;;;;;17.60;5.53;;;;;;;5.12;61.17;99126.44;5051914;28;20543;-84
2024/01/25 04:18:10;;;;;;;15.17;5.13;;;;;;;5.16;60.79;99142.78;5052264;28;20333;-85
2024/01/25 04:20:37;;;;;;;11.53;5.83;;;;;;;5.18;60.79;99144.44;5052886;28;20183;-84
2024/01/25 04:23:02;;;;;;;13.60;6.23;;;;;;;5.23;60.66;99128.72;5052753;28;20177;-84
2024/01/25 04:25:29;;;;;;;10.30;4.97;;;;;;;4.97;61.16;99113.94;5052175;28;20521;-84
2024/01/25 04:27:54;;;;;;;10.77;4.83;;;;;;;4.97;61.83;99134.72;5053243;28;20521;-84
2024/01/25 04:30:21;;;;;;;10.07;4.43;;;;;;;5.03;61.36;99136.28;5052949;28;20619;-84
2024/01/25 04:32:46;;;;;;;9.57;4.73;;;;;;;5.00;61.28;99125.97;5052876;28;20189;-83
2024/01/25 04:35:13;;;;;;;11.80;5.63;;;;;;;4.82;62.06;99120.41;5052835;28;20287;-84
2024/01/25 04:37:38;;;;;;;10.13;5.03;;;;;;;4.80;61.94;99116.16;5052847;28;20180;-84
2024/01/25 04:40:05;;;;;;;33.40;13.80;;;;;;;4.68;62.80;99135.56;5051581;28;20184;-85
2024/01/25 04:42:30;;;;;;;19.97;8.17;;;;;;;4.85;62.44;99129.88;5052002;28;20291;-84
2024/01/25 04:44:57;;;;;;;16.17;6.40;;;;;;;4.58;62.63;99122.91;5039053;28;20186;-84
2024/01/25 04:47:24;;;;;;;10.53;5.47;;;;;;;4.72;63.14;99141.50;5031765;28;20246;-85
2024/01/25 04:49:51;;;;;;;10.10;5.67;;;;;;;4.73;62.18;99138.03;5032157;28;20188;-84
2024/01/25 04:52:18;;;;;;;13.13;6.37;;;;;;;4.60;62.71;99132.34;5033018;28;20291;-84
2024/01/25 04:54:43;;;;;;;11.10;6.47;;;;;;;4.75;62.33;99128.44;5036023;28;20644;-85
2024/01/25 04:57:10;;;;;;;9.23;5.63;;;;;;;4.75;62.02;99133.63;5036570;28;20181;-85
2024/01/25 04:59:36;;;;;;;15.90;5.53;;;;;;;4.79;61.38;99148.25;5035599;28;20615;-84
2024/01/25 05:02:03;;;;;;;12.50;4.97;;;;;;;4.76;61.62;99138.78;5036379;28;20266;-85
2024/01/25 05:04:30;;;;;;;13.07;6.07;;;;;;;4.77;61.51;99144.84;5053893;28;20242;-85
2024/01/25 05:06:57;;;;;;;10.87;5.90;;;;;;;4.65;61.80;99111.44;5043051;28;20684;-84
2024/01/25 05:09:23;;;;;;;11.73;5.57;;;;;;;4.76;61.48;99124.97;5003596;28;20263;-84
2024/01/25 05:11:50;;;;;;;12.90;6.17;;;;;;;4.78;61.92;99103.25;5046255;28;20197;-85
2024/01/25 05:14:17;;;;;;;9.60;5.60;;;;;;;4.75;61.54;99100.72;5042520;28;20638;-85
2024/01/25 05:16:43;;;;;;;11.30;5.90;;;;;;;4.75;60.93;99103.34;5055377;28;20259;-84
2024/01/25 05:19:10;;;;;;;12.03;5.33;;;;;;;4.76;61.13;99111.97;5044125;28;20200;-85
2024/01/25 05:21:37;;;;;;;13.07;6.70;;;;;;;4.64;61.35;99118.38;5038282;28;20309;-85
2024/01/25 05:24:03;;;;;;;13.80;6.57;;;;;;;4.43;62.06;99133.72;5035108;28;20189;-84
2024/01/25 05:26:29;;;;;;;17.70;7.00;;;;;;;4.35;62.45;99133.91;5035494;28;20186;-84
2024/01/25 05:28:56;;;;;;;19.70;8.93;;;;;;;4.38;62.36;99144.19;5035146;28;20172;-84
2024/01/25 05:31:22;;;;;;;23.17;8.90;;;;;;;4.52;61.97;99149.00;5016025;28;20549;-84
2024/01/25 05:33:48;;;;;;;19.00;7.27;;;;;;;4.48;61.93;99134.44;5015246;28;20179;-85
2024/01/25 05:36:14;;;;;;;19.33;7.97;;;;;;;4.31;62.69;99122.78;5051279;28;20192;-84
2024/01/25 05:38:40;;;;;;;16.67;6.87;;;;;;;4.21;63.18;99121.34;5054906;28;20208;-84
2024/01/25 05:41:05;;;;;;;18.90;8.60;;;;;;;4.26;63.37;99101.31;5054674;28;20528;-84
2024/01/25 05:43:31;;;;;;;17.47;7.80;;;;;;;4.28;63.51;99109.88;5055627;28;20640;-85
2024/01/25 05:45:56;;;;;;;22.33;9.40;;;;;;;4.33;64.05;99094.19;5054799;28;20518;-84
2024/01/25 05:48:22;;;;;;;36.60;11.23;;;;;;;4.35;64.63;99093.25;5054174;28;20178;-84
2024/01/25 05:50:47;;;;;;;20.13;9.10;;;;;;;4.52;64.42;99087.59;5054217;28;20185;-84
2024/01/25 05:53:13;;;;;;;31.67;12.87;;;;;;;4.64;64.30;99101.97;5054914;28;20181;-85
2024/01/25 05:55:38;;;;;;;23.27;10.27;;;;;;;4.71;63.67;99083.56;5055477;28;20202;-84
2024/01/25 05:58:04;;;;;;;21.97;9.50;;;;;;;4.75;63.83;99073.91;5054396;28;20202;-84
2024/01/25 06:00:29;;;;;;;19.80;9.67;;;;;;;4.82;63.49;99063.28;5054580;28;20204;-85
2024/01/25 06:02:55;;;;;;;19.40;8.80;;;;;;;4.93;63.21;99068.16;5054152;28;20182;-84
2024/01/25 06:05:20;;;;;;;21.60;9.13;;;;;;;5.04;62.97;99063.47;5054558;28;20194;-84
2024/01/25 06:07:46;;;;;;;17.47;9.17;;;;;;;5.11;63.23;99079.75;5054558;28;20278;-85
2024/01/25 06:10:11;;;;;;;20.67;10.47;;;;;;;5.14;63.53;99077.88;5039442;28;20286;-84
2024/01/25 06:12:36;;;;;;;18.63;9.87;;;;;;;4.95;65.13;99077.59;5038488;28;20193;-84
2024/01/25 06:15:02;;;;;;;15.53;8.50;;;;;;;5.25;64.86;99085.31;5054006;28;20622;-84
2024/01/25 06:17:28;;;;;;;17.53;9.03;;;;;;;5.26;64.47;99079.25;5054764;28;20187;-83
2024/01/25 06:19:53;;;;;;;21.80;9.27;;;;;;;5.31;64.51;99096.41;5054547;28;20669;-83
2024/01/25 06:22:18;;;;;;;32.17;13.00;;;;;;;5.27;64.86;99101.72;5055096;28;20667;-83
2024/01/25 06:24:44;;;;;;;32.50;11.47;;;;;;;4.92;65.24;99110.63;5053570;28;20175;-82
2024/01/25 06:27:10;;;;;;;25.40;12.17;;;;;;;4.64;66.45;99109.75;5054568;28;20532;-83
2024/01/25 06:29:35;;;;;;;17.57;8.50;;;;;;;4.87;66.27;99109.91;5054238;28;20170;-82
2024/01/25 06:32:01;;;;;;;25.10;10.23;;;;;;;5.64;65.74;99111.78;5053823;28;20216;-83
2024/01/25 06:34:26;;;;;;;25.80;9.23;;;;;;;6.48;62.90;99106.22;5053616;28;20288;-83
2024/01/25 06:36:52;;;;;;;20.33;9.77;;;;;;;6.90;60.94;99115.94;5053761;28;20182;-84
2024/01/25 06:39:17;;;;;;;24.00;9.73;;;;;;;7.15;60.39;99119.31;5053602;28;20209;-84
